sensor_id;sensor_type;location;lat;lon;timestamp;temperature;humidity
40257;DHT22;25977;45.462;9.210;2024-03-08T00:02:00;12.70;95.50
40257;DHT22;25977;45.462;9.210;2024-03-08T00:04:26;12.70;95.40
40257;DHT22;25977;45.462;9.210;2024-03-08T00:06:51;12.70;95.40
40257;DHT22;25977;45.462;9.210;2024-03-08T00:09:17;12.70;95.40
40257;DHT22;25977;45.462;9.210;2024-03-08T00:11:43;12.70;95.40
40257;DHT22;25977;45.462;9.210;2024-03-08T00:14:09;12.70;95.40
40257;DHT22;25977;45.462;9.210;2024-03-08T00:16:34;12.70;95.40
40257;DHT22;25977;45.462;9.210;2024-03-08T00:19:01;12.70;95.40
40257;DHT22;25977;45.462;9.210;2024-03-08T00:21:27;12.70;95.50
40257;DHT22;25977;45.462;9.210;2024-03-08T00:23:53;12.70;95.50
40257;DHT22;25977;45.462;9.210;2024-03-08T00:26:20;12.60;95.60
40257;DHT22;25977;45.462;9.210;2024-03-08T00:28:48;12.50;95.70
40257;DHT22;25977;45.462;9.210;2024-03-08T00:31:14;12.50;95.80
40257;DHT22;25977;45.462;9.210;2024-03-08T00:33:42;12.50;95.80
40257;DHT22;25977;45.462;9.210;2024-03-08T00:36:08;12.50;95.90
40257;DHT22;25977;45.462;9.210;2024-03-08T00:38:34;12.40;96.00
40257;DHT22;25977;45.462;9.210;2024-03-08T00:41:00;12.40;95.90
40257;DHT22;25977;45.462;9.210;2024-03-08T00:43:25;12.20;96.10
40257;DHT22;25977;45.462;9.210;2024-03-08T00:45:51;12.30;96.10
40257;DHT22;25977;45.462;9.210;2024-03-08T00:48:17;12.10;96.30
40257;DHT22;25977;45.462;9.210;2024-03-08T00:50:43;12.20;96.00
40257;DHT22;25977;45.462;9.210;2024-03-08T00:53:12;12.10;96.20
40257;DHT22;25977;45.462;9.210;2024-03-08T00:55:38;12.10;96.30
40257;DHT22;25977;45.462;9.210;2024-03-08T00:58:04;12.10;96.20
40257;DHT22;25977;45.462;9.210;2024-03-08T01:00:30;12.20;96.20
40257;DHT22;25977;45.462;9.210;2024-03-08T01:02:56;12.10;96.20
40257;DHT22;25977;45.462;9.210;2024-03-08T01:05:22;12.00;96.30
40257;DHT22;25977;45.462;9.210;2024-03-08T01:07:50;12.10;96.10
40257;DHT22;25977;45.462;9.210;2024-03-08T01:10:16;12.10;95.90
40257;DHT22;25977;45.462;9.210;2024-03-08T01:12:41;12.10;95.90
40257;DHT22;25977;45.462;9.210;2024-03-08T01:15:09;12.10;95.80
40257;DHT22;25977;45.462;9.210;2024-03-08T01:17:36;12.10;95.70
40257;DHT22;25977;45.462;9.210;2024-03-08T01:20:02;12.10;95.70
40257;DHT22;25977;45.462;9.210;2024-03-08T01:22:28;12.00;95.60
40257;DHT22;25977;45.462;9.210;2024-03-08T01:24:56;11.80;95.60
40257;DHT22;25977;45.462;9.210;2024-03-08T01:27:21;11.80;95.60
40257;DHT22;25977;45.462;9.210;2024-03-08T01:29:47;11.90;95.60
40257;DHT22;25977;45.462;9.210;2024-03-08T01:32:13;11.90;95.50
40257;DHT22;25977;45.462;9.210;2024-03-08T01:34:40;11.40;96.00
40257;DHT22;25977;45.462;9.210;2024-03-08T01:37:06;11.40;96.10
40257;DHT22;25977;45.462;9.210;2024-03-08T01:39:32;11.60;95.90
40257;DHT22;25977;45.462;9.210;2024-03-08T01:41:58;11.60;95.80
40257;DHT22;25977;45.462;9.210;2024-03-08T01:44:27;11.70;95.70
40257;DHT22;25977;45.462;9.210;2024-03-08T01:46:53;11.50;95.90
40257;DHT22;25977;45.462;9.210;2024-03-08T01:49:20;11.60;95.60
40257;DHT22;25977;45.462;9.210;2024-03-08T01:51:48;11.70;95.50
40257;DHT22;25977;45.462;9.210;2024-03-08T01:54:16;11.40;95.50
40257;DHT22;25977;45.462;9.210;2024-03-08T01:56:42;11.30;95.80
40257;DHT22;25977;45.462;9.210;2024-03-08T01:59:08;11.50;95.80
40257;DHT22;25977;45.462;9.210;2024-03-08T02:01:34;11.50;95.80
40257;DHT22;25977;45.462;9.210;2024-03-08T02:04:00;11.60;95.60
40257;DHT22;25977;45.462;9.210;2024-03-08T02:06:26;11.70;95.60
40257;DHT22;25977;45.462;9.210;2024-03-08T02:08:52;11.70;95.50
40257;DHT22;25977;45.462;9.210;2024-03-08T02:11:19;11.70;95.50
40257;DHT22;25977;45.462;9.210;2024-03-08T02:13:46;11.70;95.50
40257;DHT22;25977;45.462;9.210;2024-03-08T02:16:12;11.80;95.50
40257;DHT22;25977;45.462;9.210;2024-03-08T02:18:38;11.80;95.40
40257;DHT22;25977;45.462;9.210;2024-03-08T02:21:06;11.80;95.30
40257;DHT22;25977;45.462;9.210;2024-03-08T02:23:32;11.80;95.40
40257;DHT22;25977;45.462;9.210;2024-03-08T02:25:58;11.80;95.40
40257;DHT22;25977;45.462;9.210;2024-03-08T02:28:24;11.80;95.40
40257;DHT22;25977;45.462;9.210;2024-03-08T02:30:50;11.80;95.40
40257;DHT22;25977;45.462;9.210;2024-03-08T02:33:17;11.80;95.50
40257;DHT22;25977;45.462;9.210;2024-03-08T02:35:47;11.70;95.60
40257;DHT22;25977;45.462;9.210;2024-03-08T02:38:14;11.70;95.60
40257;DHT22;25977;45.462;9.210;2024-03-08T02:40:46;11.80;95.70
40257;DHT22;25977;45.462;9.210;2024-03-08T02:43:13;11.70;95.80
40257;DHT22;25977;45.462;9.210;2024-03-08T02:45:40;11.70;95.90
40257;DHT22;25977;45.462;9.210;2024-03-08T02:48:08;11.40;96.30
40257;DHT22;25977;45.462;9.210;2024-03-08T02:50:34;11.50;96.30
40257;DHT22;25977;45.462;9.210;2024-03-08T02:53:00;11.60;96.40
40257;DHT22;25977;45.462;9.210;2024-03-08T02:55:27;11.50;96.50
40257;DHT22;25977;45.462;9.210;2024-03-08T02:57:53;11.50;96.60
40257;DHT22;25977;45.462;9.210;2024-03-08T03:00:20;11.50;96.60
40257;DHT22;25977;45.462;9.210;2024-03-08T03:02:49;11.40;96.70
40257;DHT22;25977;45.462;9.210;2024-03-08T03:05:20;11.40;96.80
40257;DHT22;25977;45.462;9.210;2024-03-08T03:07:45;11.40;96.80
40257;DHT22;25977;45.462;9.210;2024-03-08T03:10:11;11.40;96.90
40257;DHT22;25977;45.462;9.210;2024-03-08T03:12:38;11.40;96.90
40257;DHT22;25977;45.462;9.210;2024-03-08T03:15:04;11.40;96.90
40257;DHT22;25977;45.462;9.210;2024-03-08T03:17:33;11.40;97.00
40257;DHT22;25977;45.462;9.210;2024-03-08T03:19:58;11.50;97.00
40257;DHT22;25977;45.462;9.210;2024-03-08T03:22:24;11.50;97.00
40257;DHT22;25977;45.462;9.210;2024-03-08T03:24:51;11.50;97.10
40257;DHT22;25977;45.462;9.210;2024-03-08T03:27:17;11.50;97.10
40257;DHT22;25977;45.462;9.210;2024-03-08T03:29:43;11.40;97.20
40257;DHT22;25977;45.462;9.210;2024-03-08T03:32:13;11.50;97.20
40257;DHT22;25977;45.462;9.210;2024-03-08T03:34:39;11.50;97.10
40257;DHT22;25977;45.462;9.210;2024-03-08T03:37:05;11.30;97.30
40257;DHT22;25977;45.462;9.210;2024-03-08T03:39:32;11.20;97.30
40257;DHT22;25977;45.462;9.210;2024-03-08T03:42:00;11.40;97.40
40257;DHT22;25977;45.462;9.210;2024-03-08T03:44:28;11.40;97.30
40257;DHT22;25977;45.462;9.210;2024-03-08T03:46:54;11.40;97.30
40257;DHT22;25977;45.462;9.210;2024-03-08T03:49:19;11.50;97.40
40257;DHT22;25977;45.462;9.210;2024-03-08T03:51:46;11.40;97.30
40257;DHT22;25977;45.462;9.210;2024-03-08T03:54:12;11.50;97.40
40257;DHT22;25977;45.462;9.210;2024-03-08T03:56:38;11.50;97.30
40257;DHT22;25977;45.462;9.210;2024-03-08T03:59:06;11.50;97.40
40257;DHT22;25977;45.462;9.210;2024-03-08T04:01:32;11.50;97.40
40257;DHT22;25977;45.462;9.210;2024-03-08T04:03:58;11.50;97.60
40257;DHT22;25977;45.462;9.210;2024-03-08T04:06:24;11.30;97.70
40257;DHT22;25977;45.462;9.210;2024-03-08T04:08:50;11.40;97.70
40257;DHT22;25977;45.462;9.210;2024-03-08T04:11:16;11.20;97.80
40257;DHT22;25977;45.462;9.210;2024-03-08T04:13:42;11.30;97.90
40257;DHT22;25977;45.462;9.210;2024-03-08T04:16:08;11.40;97.80
40257;DHT22;25977;45.462;9.210;2024-03-08T04:18:36;11.50;97.80
40257;DHT22;25977;45.462;9.210;2024-03-08T04:21:04;11.50;97.80
40257;DHT22;25977;45.462;9.210;2024-03-08T04:23:33;11.50;97.70
40257;DHT22;25977;45.462;9.210;2024-03-08T04:26:02;11.40;98.10
40257;DHT22;25977;45.462;9.210;2024-03-08T04:28:29;11.50;97.90
40257;DHT22;25977;45.462;9.210;2024-03-08T04:30:54;11.50;97.90
40257;DHT22;25977;45.462;9.210;2024-03-08T04:33:20;11.50;97.90
40257;DHT22;25977;45.462;9.210;2024-03-08T04:35:47;11.40;98.00
40257;DHT22;25977;45.462;9.210;2024-03-08T04:38:13;11.30;98.10
40257;DHT22;25977;45.462;9.210;2024-03-08T04:40:38;11.40;98.10
40257;DHT22;25977;45.462;9.210;2024-03-08T04:43:05;11.40;98.10
40257;DHT22;25977;45.462;9.210;2024-03-08T04:45:31;11.30;98.20
40257;DHT22;25977;45.462;9.210;2024-03-08T04:47:57;11.40;98.20
40257;DHT22;25977;45.462;9.210;2024-03-08T04:50:23;11.40;98.20
40257;DHT22;25977;45.462;9.210;2024-03-08T04:52:49;11.40;98.20
40257;DHT22;25977;45.462;9.210;2024-03-08T04:55:14;11.40;98.20
40257;DHT22;25977;45.462;9.210;2024-03-08T04:57:40;11.30;98.30
40257;DHT22;25977;45.462;9.210;2024-03-08T05:00:08;11.10;98.50
40257;DHT22;25977;45.462;9.210;2024-03-08T05:02:37;11.10;98.60
40257;DHT22;25977;45.462;9.210;2024-03-08T05:05:08;11.10;98.70
40257;DHT22;25977;45.462;9.210;2024-03-08T05:07:40;11.00;98.90
40257;DHT22;25977;45.462;9.210;2024-03-08T05:10:07;11.10;98.90
40257;DHT22;25977;45.462;9.210;2024-03-08T05:12:33;10.90;99.10
40257;DHT22;25977;45.462;9.210;2024-03-08T05:14:59;10.80;99.30
40257;DHT22;25977;45.462;9.210;2024-03-08T05:17:25;10.90;99.30
40257;DHT22;25977;45.462;9.210;2024-03-08T05:19:51;10.80;99.70
40257;DHT22;25977;45.462;9.210;2024-03-08T05:22:17;10.80;99.40
40257;DHT22;25977;45.462;9.210;2024-03-08T05:24:44;10.90;99.50
40257;DHT22;25977;45.462;9.210;2024-03-08T05:27:10;10.90;99.60
40257;DHT22;25977;45.462;9.210;2024-03-08T05:29:36;10.60;99.80
40257;DHT22;25977;45.462;9.210;2024-03-08T05:32:03;11.10;99.90
40257;DHT22;25977;45.462;9.210;2024-03-08T05:34:29;10.90;99.50
40257;DHT22;25977;45.462;9.210;2024-03-08T05:36:55;10.80;99.50
40257;DHT22;25977;45.462;9.210;2024-03-08T05:39:21;10.40;99.90
40257;DHT22;25977;45.462;9.210;2024-03-08T05:41:47;10.50;99.60
40257;DHT22;25977;45.462;9.210;2024-03-08T05:44:13;10.50;99.90
40257;DHT22;25977;45.462;9.210;2024-03-08T05:46:39;10.50;99.90
40257;DHT22;25977;45.462;9.210;2024-03-08T05:49:06;10.20;99.90
40257;DHT22;25977;45.462;9.210;2024-03-08T05:51:36;10.10;99.90
40257;DHT22;25977;45.462;9.210;2024-03-08T05:54:03;10.30;99.90
40257;DHT22;25977;45.462;9.210;2024-03-08T05:56:31;10.20;99.90
40257;DHT22;25977;45.462;9.210;2024-03-08T05:58:57;10.30;99.90
40257;DHT22;25977;45.462;9.210;2024-03-08T06:01:26;10.20;99.90
40257;DHT22;25977;45.462;9.210;2024-03-08T06:03:56;10.10;99.90
40257;DHT22;25977;45.462;9.210;2024-03-08T06:06:26;10.10;99.90
40257;DHT22;25977;45.462;9.210;2024-03-08T06:08:52;10.10;99.90
40257;DHT22;25977;45.462;9.210;2024-03-08T06:11:19;10.10;99.90
40257;DHT22;25977;45.462;9.210;2024-03-08T06:13:45;10.30;99.90
40257;DHT22;25977;45.462;9.210;2024-03-08T06:16:11;10.50;99.90
40257;DHT22;25977;45.462;9.210;2024-03-08T06:18:38;10.40;99.90
40257;DHT22;25977;45.462;9.210;2024-03-08T06:21:05;10.20;99.90
40257;DHT22;25977;45.462;9.210;2024-03-08T06:23:34;10.50;99.90
40257;DHT22;25977;45.462;9.210;2024-03-08T06:26:07;10.40;99.90
40257;DHT22;25977;45.462;9.210;2024-03-08T06:28:33;10.50;99.90
40257;DHT22;25977;45.462;9.210;2024-03-08T06:31:03;10.40;99.90
40257;DHT22;25977;45.462;9.210;2024-03-08T06:33:30;10.20;99.90
40257;DHT22;25977;45.462;9.210;2024-03-08T06:35:57;10.10;99.90
40257;DHT22;25977;45.462;9.210;2024-03-08T06:38:26;10.00;99.90
40257;DHT22;25977;45.462;9.210;2024-03-08T06:40:53;10.20;99.90
40257;DHT22;25977;45.462;9.210;2024-03-08T06:43:20;10.10;99.90
40257;DHT22;25977;45.462;9.210;2024-03-08T06:45:46;10.30;99.90
40257;DHT22;25977;45.462;9.210;2024-03-08T06:48:15;10.20;99.90
40257;DHT22;25977;45.462;9.210;2024-03-08T06:50:43;10.10;99.90
40257;DHT22;25977;45.462;9.210;2024-03-08T06:53:09;10.00;99.90
40257;DHT22;25977;45.462;9.210;2024-03-08T06:55:35;10.00;99.90
40257;DHT22;25977;45.462;9.210;2024-03-08T06:58:01;10.30;99.90
40257;DHT22;25977;45.462;9.210;2024-03-08T07:00:26;10.40;99.90
40257;DHT22;25977;45.462;9.210;2024-03-08T07:02:54;10.50;99.90
40257;DHT22;25977;45.462;9.210;2024-03-08T07:05:20;10.60;99.60
40257;DHT22;25977;45.462;9.210;2024-03-08T07:07:46;10.70;99.70
40257;DHT22;25977;45.462;9.210;2024-03-08T07:10:14;10.50;99.50
40257;DHT22;25977;45.462;9.210;2024-03-08T07:12:41;10.40;99.90
40257;DHT22;25977;45.462;9.210;2024-03-08T07:15:08;10.50;99.50
40257;DHT22;25977;45.462;9.210;2024-03-08T07:17:39;10.70;99.50
40257;DHT22;25977;45.462;9.210;2024-03-08T07:20:06;10.70;99.30
40257;DHT22;25977;45.462;9.210;2024-03-08T07:22:36;10.90;99.20
40257;DHT22;25977;45.462;9.210;2024-03-08T07:25:02;10.80;98.90
40257;DHT22;25977;45.462;9.210;2024-03-08T07:27:50;11.00;99.10
40257;DHT22;25977;45.462;9.210;2024-03-08T07:30:22;11.20;98.70
40257;DHT22;25977;45.462;9.210;2024-03-08T07:33:06;11.00;98.80
40257;DHT22;25977;45.462;9.210;2024-03-08T07:35:35;10.90;98.70
40257;DHT22;25977;45.462;9.210;2024-03-08T07:38:08;10.70;99.00
40257;DHT22;25977;45.462;9.210;2024-03-08T07:40:38;10.60;99.20
40257;DHT22;25977;45.462;9.210;2024-03-08T07:43:11;10.70;98.90
40257;DHT22;25977;45.462;9.210;2024-03-08T07:45:37;10.80;99.30
40257;DHT22;25977;45.462;9.210;2024-03-08T07:48:04;10.70;98.80
40257;DHT22;25977;45.462;9.210;2024-03-08T07:50:40;10.80;98.70
40257;DHT22;25977;45.462;9.210;2024-03-08T07:53:07;10.60;99.00
40257;DHT22;25977;45.462;9.210;2024-03-08T07:55:36;10.40;99.20
40257;DHT22;25977;45.462;9.210;2024-03-08T07:58:03;10.50;99.50
40257;DHT22;25977;45.462;9.210;2024-03-08T08:00:29;10.30;99.30
40257;DHT22;25977;45.462;9.210;2024-03-08T08:02:56;10.20;99.50
40257;DHT22;25977;45.462;9.210;2024-03-08T08:05:22;10.20;99.50
40257;DHT22;25977;45.462;9.210;2024-03-08T08:07:48;10.20;99.50
40257;DHT22;25977;45.462;9.210;2024-03-08T08:10:15;10.30;99.70
40257;DHT22;25977;45.462;9.210;2024-03-08T08:12:50;10.40;99.40
40257;DHT22;25977;45.462;9.210;2024-03-08T08:15:17;10.30;99.40
40257;DHT22;25977;45.462;9.210;2024-03-08T08:17:44;10.50;99.40
40257;DHT22;25977;45.462;9.210;2024-03-08T08:20:10;10.60;99.40
40257;DHT22;25977;45.462;9.210;2024-03-08T08:22:40;10.80;99.20
40257;DHT22;25977;45.462;9.210;2024-03-08T08:25:09;10.90;99.00
40257;DHT22;25977;45.462;9.210;2024-03-08T08:27:38;11.20;98.80
40257;DHT22;25977;45.462;9.210;2024-03-08T08:30:05;11.20;98.50
40257;DHT22;25977;45.462;9.210;2024-03-08T08:32:36;11.30;98.30
40257;DHT22;25977;45.462;9.210;2024-03-08T08:35:03;11.10;98.60
40257;DHT22;25977;45.462;9.210;2024-03-08T08:37:31;10.90;98.40
40257;DHT22;25977;45.462;9.210;2024-03-08T08:39:57;11.00;98.80
40257;DHT22;25977;45.462;9.210;2024-03-08T08:42:24;11.20;98.40
40257;DHT22;25977;45.462;9.210;2024-03-08T08:44:50;11.20;98.20
40257;DHT22;25977;45.462;9.210;2024-03-08T08:47:17;11.30;98.10
40257;DHT22;25977;45.462;9.210;2024-03-08T08:49:47;11.40;97.90
40257;DHT22;25977;45.462;9.210;2024-03-08T08:52:13;11.60;97.70
40257;DHT22;25977;45.462;9.210;2024-03-08T08:54:39;11.40;97.90
40257;DHT22;25977;45.462;9.210;2024-03-08T08:57:05;11.30;97.90
40257;DHT22;25977;45.462;9.210;2024-03-08T08:59:34;11.30;98.30
40257;DHT22;25977;45.462;9.210;2024-03-08T09:02:07;11.60;98.30
40257;DHT22;25977;45.462;9.210;2024-03-08T09:04:34;11.80;97.90
40257;DHT22;25977;45.462;9.210;2024-03-08T09:07:01;12.10;97.50
40257;DHT22;25977;45.462;9.210;2024-03-08T09:09:27;12.30;97.50
40257;DHT22;25977;45.462;9.210;2024-03-08T09:11:53;12.40;97.10
40257;DHT22;25977;45.462;9.210;2024-03-08T09:14:20;12.60;97.10
40257;DHT22;25977;45.462;9.210;2024-03-08T09:16:46;12.70;96.80
40257;DHT22;25977;45.462;9.210;2024-03-08T09:19:13;12.80;96.70
40257;DHT22;25977;45.462;9.210;2024-03-08T09:21:38;13.00;96.70
40257;DHT22;25977;45.462;9.210;2024-03-08T09:24:06;13.10;96.60
40257;DHT22;25977;45.462;9.210;2024-03-08T09:26:32;13.00;96.00
40257;DHT22;25977;45.462;9.210;2024-03-08T09:28:59;12.70;96.60
40257;DHT22;25977;45.462;9.210;2024-03-08T09:31:25;12.70;96.50
40257;DHT22;25977;45.462;9.210;2024-03-08T09:33:51;12.60;96.80
40257;DHT22;25977;45.462;9.210;2024-03-08T09:36:17;12.70;96.50
40257;DHT22;25977;45.462;9.210;2024-03-08T09:38:43;12.60;96.60
40257;DHT22;25977;45.462;9.210;2024-03-08T09:41:10;12.50;96.60
40257;DHT22;25977;45.462;9.210;2024-03-08T09:43:38;12.50;96.90
40257;DHT22;25977;45.462;9.210;2024-03-08T09:46:04;12.70;97.00
40257;DHT22;25977;45.462;9.210;2024-03-08T09:48:32;12.70;96.70
40257;DHT22;25977;45.462;9.210;2024-03-08T09:50:58;12.60;96.60
40257;DHT22;25977;45.462;9.210;2024-03-08T09:53:23;12.40;96.60
40257;DHT22;25977;45.462;9.210;2024-03-08T09:55:49;12.40;96.90
40257;DHT22;25977;45.462;9.210;2024-03-08T09:58:16;12.30;97.00
40257;DHT22;25977;45.462;9.210;2024-03-08T10:00:47;12.40;97.00
40257;DHT22;25977;45.462;9.210;2024-03-08T10:03:13;12.30;97.30
40257;DHT22;25977;45.462;9.210;2024-03-08T10:05:42;12.30;97.20
40257;DHT22;25977;45.462;9.210;2024-03-08T10:08:10;12.10;96.90
40257;DHT22;25977;45.462;9.210;2024-03-08T10:10:36;11.70;97.40
40257;DHT22;25977;45.462;9.210;2024-03-08T10:13:06;11.90;97.40
40257;DHT22;25977;45.462;9.210;2024-03-08T10:15:32;12.00;97.40
40257;DHT22;25977;45.462;9.210;2024-03-08T10:18:01;12.20;97.30
40257;DHT22;25977;45.462;9.210;2024-03-08T10:20:32;12.20;97.20
40257;DHT22;25977;45.462;9.210;2024-03-08T10:23:05;12.00;97.10
40257;DHT22;25977;45.462;9.210;2024-03-08T10:25:32;12.00;97.10
40257;DHT22;25977;45.462;9.210;2024-03-08T10:27:58;11.70;97.80
40257;DHT22;25977;45.462;9.210;2024-03-08T10:30:24;11.70;97.80
40257;DHT22;25977;45.462;9.210;2024-03-08T10:32:50;11.80;97.60
40257;DHT22;25977;45.462;9.210;2024-03-08T10:35:17;11.90;97.60
40257;DHT22;25977;45.462;9.210;2024-03-08T10:37:48;11.90;97.80
40257;DHT22;25977;45.462;9.210;2024-03-08T10:40:18;12.10;97.60
40257;DHT22;25977;45.462;9.210;2024-03-08T10:42:57;12.10;97.50
40257;DHT22;25977;45.462;9.210;2024-03-08T10:45:40;12.10;97.40
40257;DHT22;25977;45.462;9.210;2024-03-08T10:50:43;11.60;98.00
40257;DHT22;25977;45.462;9.210;2024-03-08T10:53:13;11.50;98.00
40257;DHT22;25977;45.462;9.210;2024-03-08T10:55:40;11.60;98.20
40257;DHT22;25977;45.462;9.210;2024-03-08T10:58:09;11.80;98.10
40257;DHT22;25977;45.462;9.210;2024-03-08T11:00:35;12.10;97.80
40257;DHT22;25977;45.462;9.210;2024-03-08T11:03:03;12.20;97.60
40257;DHT22;25977;45.462;9.210;2024-03-08T11:05:36;12.30;97.30
40257;DHT22;25977;45.462;9.210;2024-03-08T11:08:24;12.00;96.90
40257;DHT22;25977;45.462;9.210;2024-03-08T11:10:53;12.00;97.40
40257;DHT22;25977;45.462;9.210;2024-03-08T11:13:39;12.20;97.40
40257;DHT22;25977;45.462;9.210;2024-03-08T11:18:53;11.70;97.20
40257;DHT22;25977;45.462;9.210;2024-03-08T11:21:20;11.90;97.40
40257;DHT22;25977;45.462;9.210;2024-03-08T11:24:02;12.00;97.30
40257;DHT22;25977;45.462;9.210;2024-03-08T11:26:31;12.00;97.30
40257;DHT22;25977;45.462;9.210;2024-03-08T11:32:23;12.00;97.60
40257;DHT22;25977;45.462;9.210;2024-03-08T11:34:53;11.80;97.80
40257;DHT22;25977;45.462;9.210;2024-03-08T11:37:20;11.70;98.00
40257;DHT22;25977;45.462;9.210;2024-03-08T11:39:48;11.80;97.90
40257;DHT22;25977;45.462;9.210;2024-03-08T11:42:18;11.80;97.30
40257;DHT22;25977;45.462;9.210;2024-03-08T11:44:47;11.70;97.30
40257;DHT22;25977;45.462;9.210;2024-03-08T11:47:14;11.80;97.80
40257;DHT22;25977;45.462;9.210;2024-03-08T11:49:40;11.50;97.90
40257;DHT22;25977;45.462;9.210;2024-03-08T11:52:15;11.70;98.20
40257;DHT22;25977;45.462;9.210;2024-03-08T11:54:42;11.70;97.90
40257;DHT22;25977;45.462;9.210;2024-03-08T11:57:09;11.80;97.90
40257;DHT22;25977;45.462;9.210;2024-03-08T11:59:36;11.80;97.80
40257;DHT22;25977;45.462;9.210;2024-03-08T12:02:03;11.80;97.90
40257;DHT22;25977;45.462;9.210;2024-03-08T12:04:30;11.90;97.60
40257;DHT22;25977;45.462;9.210;2024-03-08T12:06:59;11.90;97.50
40257;DHT22;25977;45.462;9.210;2024-03-08T12:09:27;11.90;97.40
40257;DHT22;25977;45.462;9.210;2024-03-08T12:11:53;12.00;97.60
40257;DHT22;25977;45.462;9.210;2024-03-08T12:14:19;12.00;97.60
40257;DHT22;25977;45.462;9.210;2024-03-08T12:16:46;12.00;97.50
40257;DHT22;25977;45.462;9.210;2024-03-08T12:19:14;12.00;97.50
40257;DHT22;25977;45.462;9.210;2024-03-08T12:21:42;12.00;97.60
40257;DHT22;25977;45.462;9.210;2024-03-08T12:24:17;12.20;97.40
40257;DHT22;25977;45.462;9.210;2024-03-08T12:26:47;12.10;97.30
40257;DHT22;25977;45.462;9.210;2024-03-08T12:29:20;12.30;97.10
40257;DHT22;25977;45.462;9.210;2024-03-08T12:31:51;12.40;97.20
40257;DHT22;25977;45.462;9.210;2024-03-08T12:34:21;12.50;96.70
40257;DHT22;25977;45.462;9.210;2024-03-08T12:36:48;12.30;96.80
40257;DHT22;25977;45.462;9.210;2024-03-08T12:39:18;12.10;97.00
40257;DHT22;25977;45.462;9.210;2024-03-08T12:41:51;12.20;97.20
40257;DHT22;25977;45.462;9.210;2024-03-08T12:44:20;12.30;97.00
40257;DHT22;25977;45.462;9.210;2024-03-08T12:46:49;12.20;97.10
40257;DHT22;25977;45.462;9.210;2024-03-08T12:49:15;12.20;97.30
40257;DHT22;25977;45.462;9.210;2024-03-08T12:51:44;12.10;97.30
40257;DHT22;25977;45.462;9.210;2024-03-08T12:54:10;12.20;97.20
40257;DHT22;25977;45.462;9.210;2024-03-08T12:56:36;12.30;97.30
40257;DHT22;25977;45.462;9.210;2024-03-08T12:59:06;12.00;97.40
40257;DHT22;25977;45.462;9.210;2024-03-08T13:01:35;12.00;97.30
40257;DHT22;25977;45.462;9.210;2024-03-08T13:04:03;12.10;97.40
40257;DHT22;25977;45.462;9.210;2024-03-08T13:06:32;11.90;97.30
40257;DHT22;25977;45.462;9.210;2024-03-08T13:08:58;12.00;98.00
40257;DHT22;25977;45.462;9.210;2024-03-08T13:11:25;11.90;97.60
40257;DHT22;25977;45.462;9.210;2024-03-08T13:13:51;12.00;97.70
40257;DHT22;25977;45.462;9.210;2024-03-08T13:16:18;11.90;97.70
40257;DHT22;25977;45.462;9.210;2024-03-08T13:18:46;12.00;97.70
40257;DHT22;25977;45.462;9.210;2024-03-08T13:21:15;12.00;97.70
40257;DHT22;25977;45.462;9.210;2024-03-08T13:23:44;11.80;98.10
40257;DHT22;25977;45.462;9.210;2024-03-08T13:26:15;11.90;98.00
40257;DHT22;25977;45.462;9.210;2024-03-08T13:31:08;11.90;98.00
40257;DHT22;25977;45.462;9.210;2024-03-08T13:33:37;11.70;98.00
40257;DHT22;25977;45.462;9.210;2024-03-08T13:36:06;11.70;98.20
40257;DHT22;25977;45.462;9.210;2024-03-08T13:38:35;11.80;98.10
40257;DHT22;25977;45.462;9.210;2024-03-08T13:41:02;11.80;98.00
40257;DHT22;25977;45.462;9.210;2024-03-08T13:43:28;11.60;97.80
40257;DHT22;25977;45.462;9.210;2024-03-08T13:45:55;11.60;98.00
40257;DHT22;25977;45.462;9.210;2024-03-08T13:48:21;11.70;98.20
40257;DHT22;25977;45.462;9.210;2024-03-08T13:50:48;11.90;98.10
40257;DHT22;25977;45.462;9.210;2024-03-08T13:53:15;11.80;97.90
40257;DHT22;25977;45.462;9.210;2024-03-08T13:55:41;11.80;97.90
40257;DHT22;25977;45.462;9.210;2024-03-08T13:58:07;11.80;97.90
40257;DHT22;25977;45.462;9.210;2024-03-08T14:00:36;12.00;97.90
40257;DHT22;25977;45.462;9.210;2024-03-08T14:03:02;12.00;97.60
40257;DHT22;25977;45.462;9.210;2024-03-08T14:05:38;12.00;97.50
40257;DHT22;25977;45.462;9.210;2024-03-08T14:08:08;11.90;97.40
40257;DHT22;25977;45.462;9.210;2024-03-08T14:10:35;11.90;97.20
40257;DHT22;25977;45.462;9.210;2024-03-08T14:13:03;11.80;97.30
40257;DHT22;25977;45.462;9.210;2024-03-08T14:15:33;11.80;97.40
40257;DHT22;25977;45.462;9.210;2024-03-08T14:18:06;11.80;97.10
40257;DHT22;25977;45.462;9.210;2024-03-08T14:20:32;11.90;97.10
40257;DHT22;25977;45.462;9.210;2024-03-08T14:22:58;11.90;97.30
40257;DHT22;25977;45.462;9.210;2024-03-08T14:25:24;11.90;97.50
40257;DHT22;25977;45.462;9.210;2024-03-08T14:27:51;11.80;97.30
40257;DHT22;25977;45.462;9.210;2024-03-08T14:30:24;11.70;97.50
40257;DHT22;25977;45.462;9.210;2024-03-08T14:33:04;11.90;97.50
40257;DHT22;25977;45.462;9.210;2024-03-08T14:35:38;11.70;97.90
40257;DHT22;25977;45.462;9.210;2024-03-08T14:38:04;11.50;97.90
40257;DHT22;25977;45.462;9.210;2024-03-08T14:40:30;11.50;98.20
40257;DHT22;25977;45.462;9.210;2024-03-08T14:42:56;11.60;98.20
40257;DHT22;25977;45.462;9.210;2024-03-08T14:45:22;11.70;97.90
40257;DHT22;25977;45.462;9.210;2024-03-08T14:47:50;11.50;97.90
40257;DHT22;25977;45.462;9.210;2024-03-08T14:50:17;11.40;98.20
40257;DHT22;25977;45.462;9.210;2024-03-08T14:52:44;11.30;98.10
40257;DHT22;25977;45.462;9.210;2024-03-08T14:55:09;11.60;98.10
40257;DHT22;25977;45.462;9.210;2024-03-08T14:57:40;11.70;97.70
40257;DHT22;25977;45.462;9.210;2024-03-08T15:00:06;11.60;97.80
40257;DHT22;25977;45.462;9.210;2024-03-08T15:02:34;11.70;97.90
40257;DHT22;25977;45.462;9.210;2024-03-08T15:05:03;11.60;97.70
40257;DHT22;25977;45.462;9.210;2024-03-08T15:07:34;11.60;97.60
40257;DHT22;25977;45.462;9.210;2024-03-08T15:10:00;11.70;97.70
40257;DHT22;25977;45.462;9.210;2024-03-08T15:12:26;11.40;97.70
40257;DHT22;25977;45.462;9.210;2024-03-08T15:14:52;11.30;98.00
40257;DHT22;25977;45.462;9.210;2024-03-08T15:17:20;11.30;98.10
40257;DHT22;25977;45.462;9.210;2024-03-08T15:19:48;11.50;98.00
40257;DHT22;25977;45.462;9.210;2024-03-08T15:22:14;11.40;97.90
40257;DHT22;25977;45.462;9.210;2024-03-08T15:24:41;11.40;98.10
40257;DHT22;25977;45.462;9.210;2024-03-08T15:27:08;11.60;98.00
40257;DHT22;25977;45.462;9.210;2024-03-08T15:29:34;11.70;97.90
40257;DHT22;25977;45.462;9.210;2024-03-08T15:32:01;11.70;97.70
40257;DHT22;25977;45.462;9.210;2024-03-08T15:34:28;11.50;97.90
40257;DHT22;25977;45.462;9.210;2024-03-08T15:36:54;11.60;97.80
40257;DHT22;25977;45.462;9.210;2024-03-08T15:39:19;11.60;97.70
40257;DHT22;25977;45.462;9.210;2024-03-08T15:41:50;11.50;97.80
40257;DHT22;25977;45.462;9.210;2024-03-08T15:44:15;11.20;98.00